createdAt,value
2023-01-18T00:00:26.453Z,0.0
2023-01-18T00:05:33.870Z,0.0
2023-01-18T00:10:30.286Z,0.0
2023-01-18T00:16:10.893Z,0.0
2023-01-18T00:20:53.193Z,0.0
2023-01-18T00:26:24.184Z,0.0
2023-01-18T00:31:06.558Z,0.0
2023-01-18T00:36:12.956Z,0.0
2023-01-18T00:41:22.903Z,0.0
2023-01-18T00:46:29.252Z,0.0
2023-01-18T00:51:39.289Z,0.0
2023-01-18T00:56:45.883Z,0.0
2023-01-18T01:01:52.434Z,0.0
2023-01-18T01:06:58.685Z,0.0
2023-01-18T01:12:05.043Z,0.0
2023-01-18T01:22:55.455Z,0.0
2023-01-18T01:28:02.260Z,0.0
2023-01-18T01:33:08.659Z,0.0
2023-01-18T01:38:39.121Z,0.0
2023-01-18T01:43:21.603Z,0.0
2023-01-18T01:48:52.045Z,0.0
2023-01-18T01:53:34.448Z,0.0
2023-01-18T01:59:14.988Z,0.0
2023-01-18T02:04:42.379Z,0.0
2023-01-18T02:09:32.286Z,0.0
2023-01-18T02:15:02.762Z,0.0
2023-01-18T02:19:35.152Z,0.0
2023-01-18T02:24:41.595Z,0.0
2023-01-18T02:30:22.108Z,0.0
2023-01-18T02:35:04.380Z,0.0
2023-01-18T02:40:30.800Z,0.0
2023-01-18T02:45:17.127Z,0.0
2023-01-18T02:50:23.535Z,0.0
2023-01-18T02:55:29.888Z,0.0
2023-01-18T03:00:36.387Z,0.0
2023-01-18T03:05:43.008Z,0.0
2023-01-18T03:11:23.459Z,0.0
2023-01-18T03:16:30.843Z,0.0
2023-01-18T03:21:37.249Z,0.0
2023-01-18T03:26:43.715Z,0.0
2023-01-18T03:32:14.044Z,0.0
2023-01-18T03:36:56.496Z,0.0
2023-01-18T03:42:02.952Z,0.0
2023-01-18T03:53:37.234Z,0.0
2023-01-18T03:58:00.531Z,0.0
2023-01-18T04:03:07.044Z,0.0
2023-01-18T04:08:33.374Z,0.0
2023-01-18T04:14:31.876Z,0.0
2023-01-18T04:18:26.113Z,0.0
2023-01-18T04:23:56.563Z,0.0
2023-01-18T04:28:39.422Z,0.0
2023-01-18T04:33:45.879Z,0.0
2023-01-18T04:39:16.290Z,0.0
2023-01-18T04:43:58.635Z,0.0
2023-01-18T04:49:05.478Z,0.0
2023-01-18T04:54:11.832Z,0.0
2023-01-18T04:59:19.887Z,0.0
2023-01-18T05:04:26.292Z,0.0
2023-01-18T05:09:32.646Z,0.0
2023-01-18T05:14:39.132Z,0.0
2023-01-18T05:19:45.533Z,0.0
2023-01-18T05:24:51.934Z,0.0
2023-01-18T05:29:58.294Z,0.0
2023-01-18T05:34:54.706Z,0.0
2023-01-18T05:40:11.077Z,0.0
2023-01-18T05:46:01.735Z,0.0
2023-01-18T05:50:23.953Z,0.0
2023-01-18T05:55:30.312Z,0.0
2023-01-18T06:00:36.701Z,0.0
2023-01-18T06:05:43.218Z,0.0
2023-01-18T06:10:49.584Z,0.0
2023-01-18T06:15:56.065Z,0.0
2023-01-18T06:21:22.507Z,0.0
2023-01-18T06:26:08.824Z,0.0
2023-01-18T06:31:35.303Z,0.0
2023-01-18T06:36:45.658Z,0.0
2023-01-18T06:41:27.941Z,0.0
2023-01-18T06:46:34.310Z,0.0
2023-01-18T06:51:40.696Z,0.0
2023-01-18T06:56:47.174Z,4.0
2023-01-18T07:01:53.650Z,8.0
2023-01-18T07:12:06.894Z,20.0
2023-01-18T07:17:37.294Z,40.0
2023-01-18T07:22:39.669Z,72.0
2023-01-18T07:27:26.041Z,116.0
2023-01-18T07:32:52.435Z,172.0
2023-01-18T07:39:11.085Z,252.0
2023-01-18T07:42:35.322Z,364.0
2023-01-18T07:47:51.687Z,508.0
2023-01-18T07:52:58.421Z,684.0
2023-01-18T07:58:04.489Z,876.0
2023-01-18T08:03:10.904Z,1076.0
2023-01-18T08:08:17.208Z,1272.0
2023-01-18T08:13:43.666Z,1472.0
2023-01-18T08:18:53.998Z,1696.0
2023-01-18T08:23:56.362Z,1952.0
2023-01-18T08:29:02.869Z,2188.0
2023-01-18T08:33:49.283Z,2216.0
2023-01-18T08:38:55.766Z,2280.0
2023-01-18T08:44:02.160Z,2288.0
2023-01-18T08:49:08.582Z,2312.0
2023-01-18T08:54:14.928Z,2304.0
2023-01-18T08:59:21.365Z,2404.0
2023-01-18T09:04:27.702Z,2448.0
2023-01-18T09:09:34.040Z,2604.0
2023-01-18T09:14:40.417Z,2692.0
2023-01-18T09:20:06.856Z,3008.0
2023-01-18T09:24:53.238Z,3324.0
2023-01-18T09:31:31.913Z,3520.0
2023-01-18T09:36:30.289Z,3684.0
2023-01-18T09:40:12.540Z,3560.0
2023-01-18T09:45:18.917Z,3964.0
2023-01-18T09:50:25.292Z,4044.0
2023-01-18T09:55:31.764Z,4164.0
2023-01-18T10:00:38.146Z,4316.0
2023-01-18T10:06:28.524Z,4360.0
2023-01-18T10:11:14.944Z,4432.0
2023-01-18T10:15:57.432Z,4284.0
2023-01-18T10:21:23.794Z,4308.0
2023-01-18T10:26:30.201Z,4476.0
2023-01-18T10:31:36.574Z,4644.0
2023-01-18T10:36:22.903Z,4816.0
2023-01-18T10:41:29.285Z,4784.0
2023-01-18T10:46:35.765Z,4768.0
2023-01-18T10:51:42.307Z,4780.0
2023-01-18T10:57:10.081Z,4944.0
2023-01-18T11:01:55.294Z,5144.0
2023-01-18T11:07:01.472Z,5312.0
2023-01-18T11:13:09.624Z,5512.0
2023-01-18T11:17:14.239Z,5664.0
2023-01-18T11:22:44.643Z,17056.0
2023-01-18T11:27:27.035Z,74816.0
2023-01-18T11:32:53.539Z,62400.0
2023-01-18T11:37:39.846Z,72128.0
2023-01-18T11:42:46.205Z,60192.0
2023-01-18T11:47:52.578Z,62912.0
2023-01-18T11:52:59.055Z,67008.0
2023-01-18T11:58:05.733Z,71040.0
2023-01-18T12:03:12.278Z,59200.0
2023-01-18T12:08:18.625Z,51936.0
2023-01-18T12:14:37.069Z,59456.0
2023-01-18T12:18:31.374Z,65696.0
2023-01-18T12:23:40.274Z,70880.0
2023-01-18T12:28:43.240Z,67200.0
2023-01-18T12:34:34.773Z,70432.0
2023-01-18T12:38:57.131Z,69856.0
2023-01-18T12:44:17.515Z,52448.0
2023-01-18T12:48:59.833Z,72384.0
2023-01-18T12:54:16.249Z,81728.0
2023-01-18T12:59:22.609Z,65600.0
2023-01-18T13:05:29.099Z,57280.0
2023-01-18T13:09:25.371Z,52864.0
2023-01-18T13:14:55.824Z,58784.0
2023-01-18T13:20:12.248Z,62400.0
2023-01-18T13:24:54.656Z,49216.0
2023-01-18T13:30:00.991Z,49824.0
2023-01-18T13:35:22.614Z,48704.0
2023-01-18T13:40:13.995Z,45632.0
2023-01-18T13:45:44.478Z,42144.0
2023-01-18T13:50:26.953Z,40096.0
2023-01-18T13:55:33.350Z,44256.0
2023-01-18T14:00:39.682Z,41824.0
2023-01-18T14:05:46.083Z,33696.0
2023-01-18T14:10:52.473Z,35872.0
2023-01-18T14:15:58.895Z,34528.0
2023-01-18T14:21:05.223Z,39072.0
2023-01-18T14:26:11.646Z,31808.0
2023-01-18T14:31:18.057Z,26208.0
2023-01-18T14:36:24.547Z,22016.0
2023-01-18T14:41:30.921Z,21472.0
2023-01-18T14:46:37.373Z,18624.0
2023-01-18T14:51:43.649Z,16800.0
2023-01-18T14:57:14.106Z,14112.0
2023-01-18T15:02:20.480Z,11168.0
2023-01-18T15:07:02.818Z,3512.0
2023-01-18T15:11:59.278Z,2228.0
2023-01-18T15:22:49.711Z,2116.0
2023-01-18T15:27:56.045Z,1092.0
2023-01-18T15:32:58.801Z,768.0
2023-01-18T15:38:08.836Z,568.0
2023-01-18T15:42:51.143Z,420.0
2023-01-18T15:47:57.918Z,300.0
2023-01-18T15:53:04.060Z,204.0
2023-01-18T16:03:03.592Z,84.0
2023-01-18T16:06:55.528Z,44.0
2023-01-18T16:15:57.093Z,12.0
2023-01-18T16:22:14.875Z,4.0
2023-01-18T16:27:40.151Z,0.0
2023-01-18T16:32:26.608Z,0.0
2023-01-18T16:37:33.092Z,0.0
2023-01-18T16:42:39.518Z,0.0
2023-01-18T16:47:45.939Z,0.0
2023-01-18T16:52:52.332Z,0.0
2023-01-18T16:57:59.088Z,0.0
2023-01-18T17:03:05.222Z,0.0
2023-01-18T17:08:15.197Z,0.0
2023-01-18T17:13:44.631Z,0.0
2023-01-18T17:18:28.090Z,0.0
2023-01-18T17:23:35.234Z,0.0
2023-01-18T17:28:41.586Z,0.0
2023-01-18T17:33:47.978Z,0.0
2023-01-18T17:38:54.419Z,0.0
2023-01-18T17:44:00.762Z,0.0
2023-01-18T17:49:07.243Z,0.0
2023-01-18T17:54:20.724Z,0.0
2023-01-18T17:59:20.076Z,0.0
2023-01-18T18:04:26.455Z,0.0
2023-01-18T18:09:32.886Z,0.0
2023-01-18T18:14:39.241Z,0.0
2023-01-18T18:19:45.756Z,0.0
2023-01-18T18:24:52.290Z,0.0
2023-01-18T18:29:58.642Z,0.0
2023-01-18T18:35:29.066Z,0.0
2023-01-18T18:40:01.398Z,0.0
2023-01-18T18:45:17.890Z,0.0
2023-01-18T18:50:24.370Z,0.0
2023-01-18T18:55:30.820Z,0.0
2023-01-18T19:00:37.173Z,0.0
2023-01-18T19:05:43.548Z,0.0
2023-01-18T19:10:50.041Z,0.0
2023-01-18T19:16:20.431Z,0.0
2023-01-18T19:21:02.698Z,0.0
2023-01-18T19:26:09.203Z,0.0
2023-01-18T19:31:15.580Z,0.0
2023-01-18T19:36:22.001Z,0.0
2023-01-18T19:41:28.418Z,0.0
2023-01-18T19:46:34.872Z,0.0
2023-01-18T19:51:41.197Z,0.0
2023-01-18T19:56:47.740Z,0.0
2023-01-18T20:02:14.346Z,0.0
2023-01-18T20:07:24.820Z,0.0
2023-01-18T20:12:27.282Z,0.0
2023-01-18T20:17:37.646Z,0.0
2023-01-18T20:22:40.020Z,0.0
2023-01-18T20:27:40.406Z,0.0
2023-01-18T20:32:32.911Z,0.0
2023-01-18T20:37:39.399Z,0.0
2023-01-18T20:42:45.921Z,0.0
2023-01-18T20:47:52.297Z,0.0
2023-01-18T20:52:59.097Z,0.0
2023-01-18T20:58:05.105Z,0.0
2023-01-18T21:03:11.466Z,0.0
2023-01-18T21:08:17.876Z,0.0
2023-01-18T21:13:24.307Z,0.0
2023-01-18T21:18:30.675Z,0.0
2023-01-18T21:24:49.206Z,0.0
2023-01-18T21:28:43.483Z,0.0
2023-01-18T21:33:49.852Z,0.0
2023-01-18T21:39:16.288Z,0.0
2023-01-18T21:44:46.751Z,0.0
2023-01-18T21:48:59.018Z,0.0
2023-01-18T21:54:39.469Z,0.0
2023-01-18T21:59:46.600Z,0.0
2023-01-18T22:04:28.224Z,0.0
2023-01-18T22:10:04.511Z,0.0
2023-01-18T22:15:01.121Z,0.0
2023-01-18T22:19:47.677Z,0.0
2023-01-18T22:25:18.082Z,0.0
2023-01-18T22:30:00.404Z,0.0
2023-01-18T22:35:50.872Z,0.0
2023-01-18T22:40:13.147Z,0.0
2023-01-18T22:45:19.636Z,0.0
2023-01-18T22:50:26.144Z,0.0
2023-01-18T22:55:32.633Z,0.0
2023-01-18T23:00:39.001Z,0.0
2023-01-18T23:05:45.386Z,0.0
2023-01-18T23:10:51.837Z,0.0
2023-01-18T23:15:58.187Z,0.0
2023-01-18T23:21:24.676Z,0.0
2023-01-18T23:26:11.130Z,0.0
2023-01-18T23:33:37.734Z,0.0
2023-01-18T23:36:23.837Z,0.0
2023-01-18T23:41:30.265Z,0.0
2023-01-18T23:47:00.753Z,0.0
2023-01-18T23:51:43.084Z,0.0
2023-01-18T23:56:49.506Z,0.0
